Home > Products > Valid Products > TAF

000
FTUS42 KMLB 311740
TAFMCO
TAF
KMCO 311740Z 3118/0118 29005KT P6SM VCTS SCT035CB SCT250
      TEMPO 3120/3123 3SM TSRA BKN030CB
     FM010000 VRB03KT P6SM FEW035 SCT100 BKN250
     FM011500 VRB04KT P6SM SCT035=



000
FTUS42 KMLB 311138
TAFSFB
TAF
KSFB 311138Z 3112/0112 00000KT P6SM SCT120 SCT250
     FM311400 26005KT P6SM FEW025 SCT035 SCT120
     FM312000 10009KT P6SM VCTS SCT035CB BKN250
     FM010000 14005KT P6SM FEW035 SCT100 BKN250=



000
FTUS42 KMLB 311138
TAFMCO
TAF
KMCO 311138Z 3112/0112 21003KT P6SM FEW150
     FM311400 26005KT P6SM FEW025 SCT035 SCT120
     FM312000 08008KT P6SM VCTS SCT035CB BKN250
     FM010000 14005KT P6SM FEW035 SCT100 BKN250=



000
FTUS42 KMLB 311138
TAFVRB
TAF
KVRB 311138Z 3112/0112 00000KT P6SM SKC
     FM311800 09009KT P6SM VCTS SCT035CB BKN250
     FM010000 14005KT P6SM FEW035 SCT100 BKN250=



000
FTUS42 KMLB 311138
TAFMLB
TAF
KMLB 311138Z 3112/0112 00000KT P6SM SKC
     FM311400 27006KT P6SM SCT035
     FM311800 09009KT P6SM VCTS SCT035CB BKN250
     FM010000 14005KT P6SM FEW035 SCT100 BKN250=



000
FTUS42 KMLB 311138
TAFDAB
TAF
KDAB 311138Z 3112/0112 24004KT P6SM SCT120 BKN300
     FM311400 27005KT P6SM SCT035
     FM311800 09008KT P6SM VCTS SCT035CB BKN250
     FM010000 VRB04KT P6SM FEW035 SCT110 BKN250=



000
FTUS42 KMLB 310526
TAFDAB
TAF
KDAB 310526Z 3106/0106 23005KT P6SM VCSH FEW045 BKN110 OVC300
      TEMPO 3106/3107 6SM -SHRA BR BKN040
     FM311400 27005KT P6SM SCT035
     FM311800 09008KT P6SM VCTS SCT035CB BKN250
     FM010000 VRB04KT P6SM FEW035 SCT110 BKN250=



000
FTUS42 KMLB 310526
TAFMLB
TAF
KMLB 310526Z 3106/0106 VRB02KT P6SM FEW030 BKN150
     FM311400 27006KT P6SM SCT035
     FM311800 09009KT P6SM VCTS SCT035CB BKN250
     FM010000 14005KT P6SM FEW035 SCT100 BKN250=



000
FTUS42 KMLB 310526
TAFMCO
TAF
KMCO 310526Z 3106/0106 VRB03KT P6SM SCT080 SCT110 OVC140
     FM311400 26005KT P6SM FEW025 SCT035 SCT120
     FM312000 08008KT P6SM VCTS SCT035CB BKN250
     FM010000 14005KT P6SM FEW035 SCT100 BKN250=



000
FTUS42 KMLB 310526
TAFSFB
TAF
KSFB 310526Z 3106/0106 VRB04KT P6SM FEW080 SCT110 BKN150
     FM311400 26005KT P6SM FEW025 SCT035 SCT120
     FM312000 10009KT P6SM VCTS SCT035CB BKN250
     FM010000 14005KT P6SM FEW035 SCT100 BKN250=



000
FTUS42 KMLB 310526
TAFVRB
TAF
KVRB 310526Z 3106/0106 VRB04KT P6SM SCT250
     FM311400 28005KT P6SM SCT035
     FM311800 09009KT P6SM VCTS SCT035CB BKN250
     FM010000 14005KT P6SM FEW035 SCT100 BKN250=



000
FTUS42 KMLB 310301 AAC
TAFDAB
TAF AMD
KDAB 310301Z 3103/3124 21008KT 6SM BR VCTS SCT045CB SCT090 BKN110
      TEMPO 3103/3105 3SM TSRA BKN040CB
     FM310600 21004KT P6SM SCT030 SCT250
     FM311400 27005KT P6SM SCT035
     FM312200 24005KT P6SM VCTS SCT035CB BKN250=



000
FTUS42 KMLB 310032 AAA
TAFSFB
TAF AMD
KSFB 310032Z 3101/3124 VRB14G25KT P6SM VCTS BKN035CB
      TEMPO 3101/3102 VRB15G30KT 1SM TSRA BKN015CB OVC030
     FM310300 19002KT P6SM FEW030 BKN120
     FM310600 20002KT P6SM FEW010 SCT250
     FM311400 26005KT P6SM SCT035
     FM312000 25005KT P6SM VCTS SCT035CB BKN250=



000
FTUS42 KMLB 302314 AAB
TAFDAB
TAF AMD
KDAB 302314Z 3023/3118 18011G16KT P6SM TS FEW035 FEW045CB BKN130
      TEMPO 3023/3024 VRB30G40KT 2SM +TSRA BKN020CB OVC060
     FM310000 12006KT P6SM FEW030 BKN120
     FM311400 27005KT P6SM SCT035=



000
FTUS42 KMLB 302106 AAA
TAFDAB
TAF AMD
KDAB 302106Z 3021/3118 09008KT P6SM SCT050 SCT110
     FM310000 12006KT P6SM FEW030 BKN120
     FM311400 27005KT P6SM SCT035=



000
FTUS42 KMLB 302104 AAB
TAFMCO
TAF AMD
KMCO 302104Z 3021/3118 08013KT P6SM VCTS FEW025 SCT060CB BKN110
     FM310100 VRB05KT P6SM FEW030 BKN120
     FM311400 26005KT P6SM SCT035=



000
FTUS42 KMLB 301120
TAFVRB
TAF
KVRB 301120Z 3012/3112 VRB04KT P6SM FEW025 SCT250
     FM301600 07006KT P6SM SCT025 SCT050
     FM301800 10009KT P6SM VCTS SCT040CB BKN250
     FM310000 13006KT P6SM FEW030 BKN120=



000
FTUS42 KMLB 301120
TAFDAB
TAF
KDAB 301120Z 3012/3112 22003KT P6SM SCT150 SCT250
     FM301400 25006KT P6SM SCT025
     FM301800 06009KT P6SM SCT040 BKN250
     FM302000 10009KT P6SM FEW040 SCT100 SCT250
     FM310000 12006KT P6SM FEW030 BKN120=



000
FTUS42 KMLB 301120
TAFMLB
TAF
KMLB 301120Z 3012/3112 VRB03KT P6SM FEW060 SCT110 SCT250
     FM301400 VRB06KT P6SM SCT025
     FM301600 07007KT P6SM SCT035 SCT060
     FM301800 10011KT P6SM VCTS SCT040CB BKN250
     FM310000 14006KT P6SM FEW030 BKN120=



000
FTUS42 KMLB 300858 AAA
TAFMCO
TAF AMD
KMCO 300858Z 3009/3106 26005KT P6SM SCT070 BKN110
     FM301400 VRB04KT P6SM SCT025 SCT050
     FM302100 06008KT P6SM VCTS SCT050CB BKN250
     FM310000 12006KT P6SM FEW030 BKN120=



000
FTUS42 KMLB 292245 AAC
TAFMCO
TAF AMD
KMCO 292245Z 2923/3018 12006KT P6SM VCTS SCT040CB BKN080
     FM300100 16004KT P6SM FEW025 BKN250
     FM301400 24004KT P6SM SCT020 SCT050=



000
FTUS42 KMLB 291800 AAA
TAFDAB
TAF AMD
KDAB 291800Z 2918/3018 05012KT P6SM VCSH SCT045 SCT060 BKN250
     FM300200 00000KT P6SM FEW025 SCT250
     FM301300 27008KT P6SM SCT020=



000
FTUS42 KMLB 291758 AAA
TAFVRB
TAF AMD
KVRB 291758Z 2918/3018 08010KT P6SM VCTS SCT040CB OVC080
      TEMPO 2918/2920 3SM TSRA BKN035CB
     FM300200 VRB03KT P6SM SCT020 SCT040
     FM301300 05007KT P6SM VCSH SCT030 SCT050=



000
FTUS42 KMLB 291138
TAFSFB
TAF
KSFB 291138Z 2912/3012 VRB02KT P6SM SKC
     FM291400 26005KT P6SM SCT040
     FM291800 VRB05KT P6SM SCT040 SCT070
     FM292100 12006KT P6SM SCT045
     FM300100 00000KT P6SM SCT050 BKN250=



000
FTUS42 KMLB 291138
TAFMLB
TAF
KMLB 291138Z 2912/3012 30003KT P6SM FEW035 SCT100
     FM291400 32005KT P6SM SCT030
     FM291600 VRB04KT P6SM VCSH SCT040
     FM291700 08008KT P6SM VCSH SCT040
     FM300200 00000KT P6SM SKC=



000
FTUS42 KMLB 291138
TAFMCO
TAF
KMCO 291138Z 2912/3012 05004KT P6SM FEW045 SCT070 SCT300
     FM291400 26005KT P6SM SCT040
     FM291800 VRB05KT P6SM VCSH SCT040 SCT070
     FM292100 12006KT P6SM VCSH SCT045
     FM300100 00000KT P6SM SCT050 BKN250=



000
FTUS42 KMLB 291138
TAFDAB
TAF
KDAB 291138Z 2912/3012 VRB03KT P6SM SCT045 SCT200
     FM291400 29006KT P6SM SCT030
     FM291700 VRB04KT P6SM SCT040
     FM291800 08008KT P6SM SCT040
     FM300200 00000KT P6SM SKC=



000
FTUS42 KMLB 291138
TAFVRB
TAF
KVRB 291138Z 2912/3012 VRB02KT P6SM FEW040 BKN110
     FM291400 31005KT P6SM SCT030
     FM291600 VRB04KT P6SM VCSH SCT040
     FM291700 08010KT P6SM VCSH SCT040 SCT120
     FM300200 00000KT P6SM SCT040=



000
FTUS42 KMLB 282328
TAFMCO
TAF
KMCO 282328Z 2900/2924 06009KT P6SM FEW060 SCT100 BKN250
     FM290300 VRB03KT P6SM SCT250
     FM291400 26005KT P6SM SCT030
     FM292100 06009KT P6SM SCT060 BKN250=



000
FTUS42 KMLB 282328
TAFSFB
TAF
KSFB 282328Z 2900/2924 05009KT P6SM VCSH FEW050 SCT100
     FM290300 VRB03KT P6SM SCT250
     FM291400 26005KT P6SM SCT030
     FM292100 06009KT P6SM SCT060 BKN250=



000
FTUS42 KMLB 282328
TAFDAB
TAF
KDAB 282328Z 2900/2924 02010KT P6SM FEW025 SCT250
     FM290300 VRB03KT P6SM SCT250
     FM291400 27007KT P6SM SCT030
     FM291800 04009KT P6SM SCT040=



000
FTUS42 KMLB 282328
TAFMLB
TAF
KMLB 282328Z 2900/2924 05009KT P6SM FEW040
     FM290200 VRB03KT P6SM FEW040 BKN250
     FM291400 25004KT P6SM SCT030
     FM291700 04009KT P6SM SCT040=



000
FTUS42 KMLB 282328
TAFVRB
TAF
KVRB 282328Z 2900/2924 05007KT P6SM FEW040
     FM290200 VRB03KT P6SM FEW040 BKN250
     FM291400 28004KT P6SM SCT030
     FM291700 07008KT P6SM SCT040=



    US Dept of Commerce
    National Oceanic and Atmospheric Administration
    National Weather Service
    1325 East West Highway
    Silver Spring, MD 20910
    Page Author: NWS Internet Services Team
Disclaimer
Information Quality
Credits
Glossary
Privacy Policy
Freedom of Information Act (FOIA)
About Us
Career Opportunities